Accueil
METAR-TAF:

METAR-TAF

Aéroports :

Aéroport de Kirkenes

Kirkenes, Norvège

latitude: 69-44N, longitude: 029-54E, altitude: 9 m

Observation

Le bulletin a été fait il y a 27 minutes, à 06:20 UTC
Vent 5 kt de nord-est
Température 7°C
Humidité 87%
Pression 1016 hPa
Visibilité 10 km ou plus
Nuages épars à une hauteur de 700 ft
Nuages fragmentés à une hauteur de 1200 ft

METAR: ENKR 030620Z 04005KT 9999 SCT007 BKN012 07/05 Q1016 RMK WIND 731FT 06009KT

Heure: 08:47 (06:47 UTC)

Prévision

Le bulletin a été fait il y a 1 heure et 47 minutes, à 05:00 UTC
Prévision valable du 03 à 06 UTC au 03 à 15 UTC
Vent 8 kt de est/nord-est
Visibilité 10 km ou plus
Quelques nuages à une hauteur de 400 ft
Nuages fragmentés à une hauteur de 1800 ft
pluie faible
Temporairement
du 03 à 06 UTC au 03 à 12 UTC
Nuages fragmentés à une hauteur de 800 ft

TAF: ENKR 030500Z 0306/0315 06008KT 9999 -RA FEW004 BKN018 TEMPO 0306/0312 BKN008

Observations et prévisions météorologiques de plus de 4000 aéroports (messages METAR et TAF).

Les stations disponibles sont représentées par des disques jaunes et rouges sur la carte.

Passer la souris dessus pour voir le nom de la station.

Cliquer dessus pour voir les observations et prévisions météorologiques.

Pour changer de carte: cliquez sur les boutons verts avec une croix noire pour zoomer, sur le bouton vert avec un tiret pour effectuer un zoom arrière, ou sur les flèches vertes pour les cartes adjacentes.


METAR-TAF: